createdAt,value
2023-03-01T00:00:44.284Z,508.00
2023-03-01T00:01:44.262Z,508.00
2023-03-01T00:02:44.356Z,504.00
2023-03-01T00:03:44.336Z,509.00
2023-03-01T00:04:44.257Z,509.00
2023-03-01T00:05:44.235Z,508.00
2023-03-01T00:06:44.276Z,507.00
2023-03-01T00:07:44.214Z,510.00
2023-03-01T00:55:19.686Z,508.00
2023-03-01T00:56:20.634Z,510.00
2023-03-01T00:57:20.625Z,509.00
2023-03-01T00:58:20.617Z,511.00
2023-03-01T00:59:20.604Z,508.00
2023-03-01T01:00:20.608Z,507.00
2023-03-01T01:01:20.710Z,507.00
2023-03-01T01:02:20.625Z,509.00
2023-03-01T01:03:20.568Z,508.00
2023-03-01T01:04:20.559Z,507.00
2023-03-01T01:05:20.549Z,506.00
2023-03-01T01:06:20.549Z,503.00
2023-03-01T01:07:20.529Z,502.00
2023-03-01T01:08:21.458Z,501.00
2023-03-01T01:09:20.707Z,501.00
2023-03-01T01:10:20.679Z,501.00
2023-03-01T01:11:20.696Z,500.00
2023-03-01T01:12:20.653Z,498.00
2023-03-01T01:13:20.640Z,496.00
2023-03-01T01:14:20.624Z,495.00
2023-03-01T01:15:20.617Z,494.00
2023-03-01T01:16:20.611Z,493.00
2023-03-01T01:17:20.602Z,491.00
2023-03-01T01:18:20.597Z,492.00
2023-03-01T01:19:20.585Z,493.00
2023-03-01T01:20:20.579Z,493.00
2023-03-01T01:21:20.576Z,495.00
2023-03-01T01:22:20.564Z,495.00
2023-03-01T01:23:20.548Z,494.00
2023-03-01T01:24:20.552Z,495.00
2023-03-01T01:25:20.534Z,496.00
2023-03-01T01:26:20.530Z,498.00
2023-03-01T01:27:20.546Z,497.00
2023-03-01T01:28:20.508Z,494.00
2023-03-01T01:29:20.500Z,492.00
2023-03-01T01:30:20.486Z,491.00
2023-03-01T01:31:20.569Z,493.00
2023-03-01T01:32:20.529Z,492.00
2023-03-01T01:33:20.464Z,492.00
2023-03-01T01:34:20.456Z,492.00
2023-03-01T01:35:20.481Z,494.00
2023-03-01T01:36:20.431Z,495.00
2023-03-01T01:37:20.420Z,498.00
2023-03-01T01:38:20.427Z,498.00
2023-03-01T01:39:20.406Z,500.00
2023-03-01T01:40:20.399Z,496.00
2023-03-01T01:41:20.386Z,496.00
2023-03-01T01:42:20.380Z,495.00
2023-03-01T01:43:20.391Z,495.00
2023-03-01T01:44:20.375Z,495.00
2023-03-01T01:45:20.358Z,495.00
2023-03-01T01:46:20.411Z,494.00
2023-03-01T01:47:20.349Z,494.00
2023-03-01T01:48:20.322Z,498.00
2023-03-01T01:49:20.315Z,500.00
2023-03-01T01:50:20.310Z,500.00
2023-03-01T01:51:20.306Z,498.00
2023-03-01T01:52:20.289Z,499.00
2023-03-01T01:53:20.277Z,496.00
2023-03-01T01:54:20.281Z,494.00
2023-03-01T01:55:20.264Z,494.00
2023-03-01T01:56:20.258Z,494.00
2023-03-01T01:57:20.253Z,492.00
2023-03-01T01:58:20.244Z,490.00
2023-03-01T01:59:20.257Z,489.00
2023-03-01T02:00:20.217Z,489.00
2023-03-01T02:01:20.211Z,491.00
2023-03-01T02:02:20.280Z,491.00
2023-03-01T02:03:20.264Z,490.00
2023-03-01T02:04:20.187Z,491.00
2023-03-01T02:05:20.175Z,491.00
2023-03-01T02:06:20.172Z,490.00
2023-03-01T02:07:20.167Z,494.00
2023-03-01T02:08:20.145Z,494.00
2023-03-01T02:09:20.989Z,498.00
2023-03-01T02:10:20.138Z,498.00
2023-03-01T02:11:20.985Z,497.00
2023-03-01T02:12:20.982Z,497.00
2023-03-01T02:13:20.100Z,496.00
2023-03-01T02:14:20.088Z,498.00
2023-03-01T02:15:20.125Z,497.00
2023-03-01T02:16:20.144Z,496.00
2023-03-01T02:17:20.069Z,498.00
2023-03-01T02:18:20.056Z,496.00
2023-03-01T02:19:20.045Z,494.00
2023-03-01T02:20:20.036Z,494.00
2023-03-01T02:21:20.988Z,496.00
2023-03-01T02:22:20.169Z,494.00
2023-03-01T02:23:20.072Z,496.00
2023-03-01T02:24:20.405Z,496.00
2023-03-01T02:25:21.001Z,496.00
2023-03-01T02:26:20.054Z,498.00
2023-03-01T02:27:20.037Z,497.00
2023-03-01T02:28:20.031Z,496.00
2023-03-01T02:29:20.986Z,494.00
2023-03-01T02:30:20.017Z,491.00
2023-03-01T02:31:20.170Z,493.00
2023-03-01T02:32:20.538Z,492.00
2023-03-01T02:33:19.985Z,492.00
2023-03-01T02:34:19.981Z,490.00
2023-03-01T02:35:19.996Z,489.00
2023-03-01T02:36:19.963Z,488.00
2023-03-01T02:37:19.950Z,488.00
2023-03-01T02:38:19.938Z,489.00
2023-03-01T02:39:19.932Z,487.00
2023-03-01T02:40:19.931Z,491.00
2023-03-01T02:41:19.918Z,488.00
2023-03-01T02:42:19.907Z,489.00
2023-03-01T02:43:19.898Z,495.00
2023-03-01T02:44:19.892Z,495.00
2023-03-01T02:45:20.005Z,497.00
2023-03-01T02:46:19.953Z,496.00
2023-03-01T02:47:19.885Z,493.00
2023-03-01T02:48:19.865Z,491.00
2023-03-01T02:49:19.845Z,491.00
2023-03-01T02:50:19.836Z,492.00
2023-03-01T02:51:19.841Z,495.00
2023-03-01T02:52:19.822Z,494.00
2023-03-01T02:53:19.808Z,494.00
2023-03-01T02:54:19.813Z,495.00
2023-03-01T02:55:19.789Z,495.00
2023-03-01T02:56:19.778Z,491.00
2023-03-01T02:57:19.777Z,491.00
2023-03-01T02:58:19.758Z,489.00
2023-03-01T02:59:19.750Z,491.00
2023-03-01T03:00:19.745Z,487.00
2023-03-01T03:01:19.734Z,486.00
2023-03-01T03:02:19.730Z,481.00
2023-03-01T03:03:19.742Z,481.00
2023-03-01T03:04:19.700Z,487.00
2023-03-01T03:05:19.690Z,484.00
2023-03-01T03:06:20.508Z,486.00
2023-03-01T03:07:19.704Z,485.00
2023-03-01T03:08:20.614Z,483.00
2023-03-01T03:09:19.660Z,485.00
2023-03-01T03:10:19.653Z,483.00
2023-03-01T03:11:19.634Z,482.00
2023-03-01T03:12:19.635Z,483.00
2023-03-01T03:13:19.633Z,483.00
2023-03-01T03:14:19.612Z,485.00
2023-03-01T03:15:19.603Z,489.00
2023-03-01T03:16:20.068Z,490.00
2023-03-01T03:17:19.585Z,488.00
2023-03-01T03:18:19.576Z,489.00
2023-03-01T03:19:19.597Z,492.00
2023-03-01T03:20:19.554Z,492.00
2023-03-01T03:21:19.553Z,493.00
2023-03-01T03:22:19.539Z,492.00
2023-03-01T03:23:19.528Z,492.00
2023-03-01T03:24:19.526Z,488.00
2023-03-01T03:25:19.522Z,487.00
2023-03-01T03:26:19.508Z,484.00
2023-03-01T03:27:19.488Z,484.00
2023-03-01T03:28:19.478Z,484.00
2023-03-01T03:29:19.476Z,482.00
2023-03-01T03:30:19.479Z,483.00
2023-03-01T03:31:19.482Z,484.00
2023-03-01T03:32:19.475Z,485.00
2023-03-01T03:33:19.429Z,483.00
2023-03-01T03:34:20.018Z,486.00
2023-03-01T03:35:19.441Z,490.00
2023-03-01T03:36:19.404Z,488.00
2023-03-01T03:37:19.397Z,488.00
2023-03-01T03:38:19.520Z,488.00
2023-03-01T03:39:20.705Z,489.00
2023-03-01T03:40:19.368Z,492.00
2023-03-01T03:41:19.376Z,494.00
2023-03-01T03:42:20.025Z,494.00
2023-03-01T03:43:19.343Z,492.00
2023-03-01T03:44:20.017Z,494.00
2023-03-01T03:45:19.325Z,496.00
2023-03-01T03:46:19.326Z,496.00
2023-03-01T03:47:19.312Z,496.00
2023-03-01T03:48:19.298Z,500.00
2023-03-01T03:49:19.299Z,499.00
2023-03-01T03:50:19.276Z,496.00
2023-03-01T03:51:19.292Z,497.00
2023-03-01T03:52:19.267Z,496.00
2023-03-01T03:53:19.249Z,495.00
2023-03-01T03:54:19.245Z,494.00
2023-03-01T03:55:19.227Z,493.00
2023-03-01T03:56:19.246Z,495.00
2023-03-01T03:57:19.220Z,498.00
2023-03-01T03:58:19.210Z,495.00
2023-03-01T03:59:19.205Z,495.00
2023-03-01T04:00:19.192Z,495.00
2023-03-01T04:01:19.222Z,494.00
2023-03-01T04:02:19.232Z,493.00
2023-03-01T04:03:19.163Z,495.00
2023-03-01T04:04:19.155Z,494.00
2023-03-01T04:05:19.157Z,495.00
2023-03-01T04:06:19.143Z,495.00
2023-03-01T04:07:19.573Z,492.00
2023-03-01T04:08:19.122Z,493.00
2023-03-01T04:09:20.031Z,492.00
2023-03-01T04:10:19.102Z,496.00
2023-03-01T04:11:19.091Z,496.00
2023-03-01T04:12:19.098Z,499.00
2023-03-01T04:13:19.070Z,500.00
2023-03-01T04:14:19.064Z,499.00
2023-03-01T04:15:19.050Z,499.00
2023-03-01T04:16:19.138Z,498.00
2023-03-01T04:17:19.035Z,497.00
2023-03-01T04:18:19.017Z,496.00
2023-03-01T04:19:19.014Z,496.00
2023-03-01T04:20:19.006Z,493.00
2023-03-01T04:21:18.992Z,495.00
2023-03-01T04:22:18.982Z,492.00
2023-03-01T04:23:19.006Z,490.00
2023-03-01T04:24:18.997Z,489.00
2023-03-01T04:25:18.959Z,492.00
2023-03-01T04:26:18.943Z,490.00
2023-03-01T04:27:18.934Z,491.00
2023-03-01T04:28:18.930Z,491.00
2023-03-01T04:29:18.917Z,491.00
2023-03-01T04:30:18.920Z,490.00
2023-03-01T04:31:18.943Z,491.00
2023-03-01T04:32:19.026Z,489.00
2023-03-01T04:33:18.879Z,490.00
2023-03-01T04:34:18.874Z,488.00
2023-03-01T04:35:18.867Z,485.00
2023-03-01T04:36:18.966Z,486.00
2023-03-01T04:37:18.845Z,486.00
2023-03-01T04:38:18.840Z,485.00
2023-03-01T04:39:18.850Z,485.00
2023-03-01T04:40:18.816Z,485.00
2023-03-01T04:41:18.830Z,488.00
2023-03-01T04:42:18.800Z,486.00
2023-03-01T04:43:18.793Z,487.00
2023-03-01T04:44:18.783Z,488.00
2023-03-01T04:45:18.776Z,487.00
2023-03-01T04:46:18.793Z,486.00
2023-03-01T04:47:18.763Z,485.00
2023-03-01T04:48:18.746Z,488.00
2023-03-01T04:49:18.737Z,488.00
2023-03-01T04:50:18.734Z,487.00
2023-03-01T04:51:18.722Z,485.00
2023-03-01T04:52:18.720Z,483.00
2023-03-01T04:53:18.704Z,485.00
2023-03-01T04:54:18.698Z,486.00
2023-03-01T04:55:19.168Z,487.00
2023-03-01T04:56:18.679Z,489.00
2023-03-01T04:57:18.672Z,489.00
2023-03-01T04:58:18.664Z,489.00
2023-03-01T04:59:18.658Z,491.00
2023-03-01T05:00:18.647Z,492.00
2023-03-01T05:01:18.635Z,493.00
2023-03-01T05:02:18.633Z,495.00
2023-03-01T05:03:18.615Z,492.00
2023-03-01T05:04:18.621Z,492.00
2023-03-01T05:05:18.601Z,492.00
2023-03-01T05:06:18.587Z,495.00
2023-03-01T05:07:18.578Z,497.00
2023-03-01T05:08:18.579Z,498.00
2023-03-01T05:09:19.562Z,499.00
2023-03-01T05:10:18.550Z,498.00
2023-03-01T05:11:18.565Z,497.00
2023-03-01T05:12:18.530Z,496.00
2023-03-01T05:13:18.524Z,497.00
2023-03-01T05:14:18.530Z,497.00
2023-03-01T05:15:18.503Z,496.00
2023-03-01T05:16:18.570Z,494.00
2023-03-01T05:17:18.486Z,494.00
2023-03-01T05:18:18.478Z,495.00
2023-03-01T05:19:18.468Z,497.00
2023-03-01T05:20:18.464Z,498.00
2023-03-01T05:21:18.486Z,498.00
2023-03-01T05:22:18.439Z,498.00
2023-03-01T05:23:18.431Z,497.00
2023-03-01T05:24:18.423Z,496.00
2023-03-01T05:25:18.424Z,498.00
2023-03-01T05:26:28.994Z,498.00
2023-03-01T05:27:18.427Z,500.00
2023-03-01T05:28:18.407Z,505.00
2023-03-01T05:29:18.383Z,503.00
2023-03-01T05:31:18.424Z,502.00
2023-03-01T05:32:18.437Z,500.00
2023-03-01T05:33:19.071Z,499.00
2023-03-01T05:34:19.213Z,501.00
2023-03-01T05:35:18.342Z,501.00
2023-03-01T05:36:18.331Z,500.00
2023-03-01T05:37:18.314Z,496.00
2023-03-01T05:38:18.309Z,498.00
2023-03-01T05:39:18.293Z,495.00
2023-03-01T05:40:18.282Z,493.00
2023-03-01T05:41:18.276Z,496.00
2023-03-01T05:42:18.277Z,495.00
2023-03-01T05:43:18.289Z,495.00
2023-03-01T05:44:18.249Z,497.00
2023-03-01T05:45:18.259Z,498.00
2023-03-01T05:46:18.299Z,498.00
2023-03-01T05:47:18.242Z,497.00
2023-03-01T05:48:19.080Z,494.00
2023-03-01T05:49:18.219Z,497.00
2023-03-01T05:50:18.213Z,497.00
2023-03-01T05:51:18.209Z,498.00
2023-03-01T05:52:18.184Z,496.00
2023-03-01T05:53:18.185Z,494.00
2023-03-01T05:54:18.164Z,496.00
2023-03-01T05:55:18.178Z,497.00
2023-03-01T05:56:19.082Z,495.00
2023-03-01T05:57:18.147Z,495.00
2023-03-01T05:58:18.148Z,496.00
2023-03-01T05:59:18.172Z,498.00
2023-03-01T06:00:18.596Z,499.00
2023-03-01T06:01:18.107Z,498.00
2023-03-01T06:02:19.087Z,500.00
2023-03-01T06:03:18.136Z,499.00
2023-03-01T06:04:18.114Z,501.00
2023-03-01T06:05:18.155Z,498.00
2023-03-01T06:06:18.067Z,498.00
2023-03-01T06:07:18.537Z,499.00
2023-03-01T06:08:18.045Z,499.00
2023-03-01T06:09:18.587Z,500.00
2023-03-01T06:10:18.032Z,499.00
2023-03-01T06:11:18.029Z,501.00
2023-03-01T06:12:18.016Z,503.00
2023-03-01T06:13:18.009Z,505.00
2023-03-01T06:14:18.097Z,504.00
2023-03-01T06:15:18.027Z,500.00
2023-03-01T06:16:18.141Z,504.00
2023-03-01T06:17:17.970Z,504.00
2023-03-01T06:18:18.101Z,502.00
2023-03-01T06:19:17.964Z,502.00
2023-03-01T06:20:17.957Z,503.00
2023-03-01T06:21:17.941Z,498.00
2023-03-01T06:22:17.926Z,501.00
2023-03-01T06:23:17.918Z,511.00
2023-03-01T06:24:17.918Z,521.00
2023-03-01T06:25:17.897Z,533.00
2023-03-01T06:26:17.895Z,540.00
2023-03-01T06:27:18.105Z,542.00
2023-03-01T06:28:18.598Z,547.00
2023-03-01T06:29:17.870Z,551.00
2023-03-01T06:30:17.865Z,557.00
2023-03-01T06:31:18.359Z,563.00
2023-03-01T06:32:17.892Z,566.00
2023-03-01T06:33:17.833Z,570.00
2023-03-01T06:34:17.859Z,576.00
2023-03-01T06:35:17.827Z,581.00
2023-03-01T06:36:17.887Z,586.00
2023-03-01T06:37:17.820Z,603.00
2023-03-01T06:38:17.878Z,606.00
2023-03-01T06:39:18.286Z,608.00
2023-03-01T06:40:17.876Z,612.00
2023-03-01T06:41:18.113Z,617.00
2023-03-01T06:42:17.756Z,626.00
2023-03-01T06:43:17.746Z,635.00
2023-03-01T06:44:17.738Z,645.00
2023-03-01T06:45:17.719Z,653.00
2023-03-01T06:46:18.144Z,660.00
2023-03-01T06:47:18.639Z,667.00
2023-03-01T06:48:18.630Z,681.00
2023-03-01T06:49:17.728Z,693.00
2023-03-01T06:50:18.233Z,700.00
2023-03-01T06:51:18.116Z,757.00
2023-03-01T06:52:17.663Z,766.00
2023-03-01T06:53:18.120Z,772.00
2023-03-01T06:54:17.651Z,792.00
2023-03-01T06:55:17.638Z,838.00
2023-03-01T06:56:17.622Z,858.00
2023-03-01T06:57:18.609Z,863.00
2023-03-01T06:58:17.621Z,869.00
2023-03-01T06:59:17.912Z,860.00
2023-03-01T07:00:25.005Z,861.00
2023-03-01T07:02:17.644Z,852.00
2023-03-01T07:03:17.622Z,846.00
2023-03-01T07:04:17.555Z,845.00
2023-03-01T07:05:18.147Z,846.00
2023-03-01T07:06:24.947Z,845.00
2023-03-01T07:08:17.823Z,844.00
2023-03-01T07:09:17.637Z,840.00
2023-03-01T07:11:17.617Z,839.00
2023-03-01T07:12:20.834Z,834.00
2023-03-01T07:13:18.149Z,838.00
2023-03-01T07:14:17.601Z,836.00
2023-03-01T07:15:17.558Z,837.00
2023-03-01T07:16:17.677Z,837.00
2023-03-01T07:17:17.554Z,834.00
2023-03-01T07:18:17.539Z,833.00
2023-03-01T07:19:18.206Z,832.00
2023-03-01T07:20:18.003Z,830.00
2023-03-01T07:21:18.127Z,828.00
2023-03-01T07:22:17.562Z,825.00
2023-03-01T07:23:17.888Z,825.00
2023-03-01T07:24:17.770Z,822.00
2023-03-01T07:25:17.920Z,823.00
2023-03-01T07:26:17.907Z,823.00
2023-03-01T07:27:17.453Z,821.00
2023-03-01T07:28:17.669Z,819.00
2023-03-01T07:29:17.462Z,817.00
2023-03-01T07:30:17.426Z,817.00
2023-03-01T07:31:17.438Z,818.00
2023-03-01T07:32:17.597Z,816.00
2023-03-01T07:33:17.491Z,813.00
2023-03-01T07:34:17.389Z,811.00
2023-03-01T07:35:17.410Z,810.00
2023-03-01T07:36:17.372Z,807.00
2023-03-01T07:37:17.369Z,805.00
2023-03-01T07:38:17.672Z,803.00
2023-03-01T07:39:18.681Z,799.00
2023-03-01T07:40:17.810Z,798.00
2023-03-01T07:41:17.337Z,797.00
2023-03-01T07:42:17.341Z,797.00
2023-03-01T07:43:18.004Z,801.00
2023-03-01T07:44:17.303Z,801.00
2023-03-01T07:45:17.294Z,801.00
2023-03-01T07:46:17.444Z,799.00
2023-03-01T07:47:17.284Z,801.00
2023-03-01T07:48:17.280Z,798.00
2023-03-01T07:49:17.268Z,798.00
2023-03-01T07:50:17.254Z,799.00
2023-03-01T07:51:17.875Z,796.00
2023-03-01T07:52:17.237Z,791.00
2023-03-01T07:53:17.232Z,791.00
2023-03-01T07:54:17.582Z,791.00
2023-03-01T07:55:17.219Z,788.00
2023-03-01T07:56:17.643Z,786.00
2023-03-01T07:57:17.190Z,786.00
2023-03-01T07:58:17.180Z,786.00
2023-03-01T07:59:17.183Z,785.00
2023-03-01T08:00:17.173Z,783.00
2023-03-01T08:01:17.159Z,779.00
2023-03-01T08:02:17.155Z,780.00
2023-03-01T08:03:17.137Z,776.00
2023-03-01T08:04:17.155Z,777.00
2023-03-01T08:05:17.123Z,775.00
2023-03-01T08:06:17.106Z,774.00
2023-03-01T08:07:17.141Z,773.00
2023-03-01T08:08:18.057Z,773.00
2023-03-01T08:09:17.650Z,773.00
2023-03-01T08:10:17.168Z,772.00
2023-03-01T08:11:17.212Z,770.00
2023-03-01T08:12:17.152Z,769.00
2023-03-01T08:13:17.144Z,770.00
2023-03-01T08:14:17.174Z,771.00
2023-03-01T08:15:17.145Z,769.00
2023-03-01T08:16:17.196Z,768.00
2023-03-01T08:17:17.105Z,770.00
2023-03-01T08:18:17.091Z,770.00
2023-03-01T08:19:17.143Z,768.00
2023-03-01T08:20:19.528Z,768.00
2023-03-01T08:21:17.083Z,766.00
2023-03-01T08:22:17.078Z,767.00
2023-03-01T08:23:17.091Z,767.00
2023-03-01T08:24:17.152Z,765.00
2023-03-01T08:25:17.046Z,765.00
2023-03-01T08:26:17.036Z,762.00
2023-03-01T08:27:17.010Z,759.00
2023-03-01T08:28:17.005Z,758.00
2023-03-01T08:29:17.391Z,758.00
2023-03-01T08:30:17.019Z,756.00
2023-03-01T08:31:17.091Z,755.00
2023-03-01T08:32:17.328Z,753.00
2023-03-01T08:33:16.998Z,754.00
2023-03-01T08:34:16.958Z,759.00
2023-03-01T08:35:16.947Z,829.00
2023-03-01T08:36:16.966Z,876.00
2023-03-01T08:37:17.150Z,890.00
2023-03-01T08:38:16.925Z,929.00
2023-03-01T08:39:17.013Z,945.00
2023-03-01T08:40:17.154Z,1008.00
2023-03-01T08:41:16.895Z,998.00
2023-03-01T08:43:17.180Z,1041.00
2023-03-01T08:44:16.990Z,1056.00
2023-03-01T08:45:17.184Z,1071.00
2023-03-01T08:46:16.942Z,1093.00
2023-03-01T08:47:16.847Z,1119.00
2023-03-01T08:48:17.156Z,1141.00
2023-03-01T08:49:17.211Z,1151.00
2023-03-01T08:50:16.835Z,1161.00
2023-03-01T08:51:16.819Z,1177.00
2023-03-01T08:52:16.886Z,1191.00
2023-03-01T08:53:16.962Z,1221.00
2023-03-01T08:54:16.856Z,1266.00
2023-03-01T08:55:17.290Z,1298.00
2023-03-01T08:56:16.755Z,1315.00
2023-03-01T08:57:16.748Z,1344.00
2023-03-01T08:58:17.183Z,1374.00
2023-03-01T08:59:16.738Z,1401.00
2023-03-01T09:00:17.218Z,1418.00
2023-03-01T09:01:16.984Z,1438.00
2023-03-01T09:02:16.751Z,1454.00
2023-03-01T09:03:16.692Z,1469.00
2023-03-01T09:04:17.693Z,1483.00
2023-03-01T09:05:19.939Z,1508.00
2023-03-01T09:06:16.670Z,1545.00
2023-03-01T09:07:16.653Z,1564.00
2023-03-01T09:08:16.663Z,1575.00
2023-03-01T09:09:16.652Z,1581.00
2023-03-01T09:10:16.668Z,1591.00
2023-03-01T09:11:16.696Z,1608.00
2023-03-01T09:12:16.609Z,1625.00
2023-03-01T09:13:16.606Z,1655.00
2023-03-01T09:14:17.174Z,1670.00
2023-03-01T09:15:16.583Z,1686.00
2023-03-01T09:16:16.642Z,1714.00
2023-03-01T09:17:16.903Z,1736.00
2023-03-01T09:18:16.865Z,1748.00
2023-03-01T09:19:16.536Z,1757.00
2023-03-01T09:20:16.696Z,1784.00
2023-03-01T09:21:16.526Z,1811.00
2023-03-01T09:22:16.685Z,1821.00
2023-03-01T09:23:16.519Z,1842.00
2023-03-01T09:24:16.508Z,1861.00
2023-03-01T09:25:16.488Z,1872.00
2023-03-01T09:26:16.472Z,1895.00
2023-03-01T09:27:16.504Z,1912.00
2023-03-01T09:28:29.110Z,1923.00
2023-03-01T09:29:16.451Z,1947.00
2023-03-01T09:30:16.460Z,1964.00
2023-03-01T09:31:16.462Z,1979.00
2023-03-01T09:32:16.601Z,1987.00
2023-03-01T09:33:16.457Z,2015.00
2023-03-01T09:34:16.682Z,2032.00
2023-03-01T09:35:16.390Z,2042.00
2023-03-01T09:36:16.390Z,2046.00
2023-03-01T09:37:16.373Z,2059.00
2023-03-01T09:38:16.366Z,2077.00
2023-03-01T09:39:16.685Z,2101.00
2023-03-01T09:40:16.697Z,2112.00
2023-03-01T09:41:16.684Z,2120.00
2023-03-01T09:42:16.326Z,2139.00
2023-03-01T09:43:16.350Z,2163.00
2023-03-01T09:44:16.315Z,2175.00
2023-03-01T09:45:17.829Z,2183.00
2023-03-01T09:46:16.395Z,2195.00
2023-03-01T09:47:16.723Z,2220.00
2023-03-01T09:48:16.299Z,2244.00
2023-03-01T09:49:19.172Z,2265.00
2023-03-01T09:50:17.189Z,2277.00
2023-03-01T09:51:16.264Z,2291.00
2023-03-01T09:52:16.286Z,2307.00
2023-03-01T09:53:16.276Z,2313.00
2023-03-01T09:54:17.237Z,2322.00
2023-03-01T09:55:16.972Z,2342.00
2023-03-01T09:56:16.248Z,2357.00
2023-03-01T09:57:16.714Z,2368.00
2023-03-01T09:58:16.224Z,2379.00
2023-03-01T09:59:16.258Z,2397.00
2023-03-01T10:00:16.221Z,2418.00
2023-03-01T10:01:16.218Z,2437.00
2023-03-01T10:02:16.203Z,2444.00
2023-03-01T10:03:16.276Z,2457.00
2023-03-01T10:05:16.162Z,2486.00
2023-03-01T10:06:27.491Z,2493.00
2023-03-01T10:07:16.165Z,2513.00
2023-03-01T10:08:16.246Z,2527.00
2023-03-01T10:09:16.104Z,2541.00
2023-03-01T10:10:16.125Z,2555.00
2023-03-01T10:11:16.103Z,2567.00
2023-03-01T10:12:16.107Z,2574.00
2023-03-01T10:13:17.102Z,2578.00
2023-03-01T10:14:16.066Z,2591.00
2023-03-01T10:15:16.112Z,2609.00
2023-03-01T10:16:16.256Z,2628.00
2023-03-01T10:17:16.044Z,2655.00
2023-03-01T10:18:16.069Z,2672.00
2023-03-01T10:19:16.051Z,2685.00
2023-03-01T10:20:17.255Z,2688.00
2023-03-01T10:21:16.035Z,2699.00
2023-03-01T10:22:17.030Z,2707.00
2023-03-01T10:23:16.017Z,2721.00
2023-03-01T10:24:16.000Z,2740.00
2023-03-01T10:25:16.021Z,2769.00
2023-03-01T10:26:15.983Z,2793.00
2023-03-01T10:27:16.138Z,2806.00
2023-03-01T10:28:15.972Z,2810.00
2023-03-01T10:29:16.236Z,2817.00
2023-03-01T10:30:16.003Z,2832.00
2023-03-01T10:31:16.040Z,2834.00
2023-03-01T10:32:15.959Z,1468.00
2023-03-01T10:33:15.905Z,1436.00
2023-03-01T10:34:16.247Z,1296.00
2023-03-01T10:35:15.906Z,1148.00
2023-03-01T10:36:16.738Z,1087.00
2023-03-01T10:37:15.910Z,1070.00
2023-03-01T10:38:15.876Z,1217.00
2023-03-01T10:39:16.251Z,1320.00
2023-03-01T10:40:15.855Z,1324.00
2023-03-01T10:41:15.821Z,1412.00
2023-03-01T10:42:15.841Z,1442.00
2023-03-01T10:43:15.840Z,1461.00
2023-03-01T10:44:16.427Z,1495.00
2023-03-01T10:45:15.819Z,1547.00
2023-03-01T10:46:15.823Z,1593.00
2023-03-01T10:47:15.835Z,1666.00
2023-03-01T10:48:15.795Z,1705.00
2023-03-01T10:49:16.785Z,1723.00
2023-03-01T10:50:16.256Z,1736.00
2023-03-01T10:51:15.734Z,1761.00
2023-03-01T10:52:15.746Z,1785.00
2023-03-01T10:53:15.731Z,1812.00
2023-03-01T10:54:15.705Z,1839.00
2023-03-01T10:55:15.692Z,1848.00
2023-03-01T10:56:15.686Z,1866.00
2023-03-01T10:57:15.673Z,1878.00
2023-03-01T10:58:15.688Z,1905.00
2023-03-01T10:59:15.669Z,1921.00
2023-03-01T11:00:15.640Z,1939.00
2023-03-01T11:01:15.711Z,1955.00
2023-03-01T11:02:24.507Z,1980.00
2023-03-01T11:03:15.665Z,2009.00
2023-03-01T11:04:15.678Z,2026.00
2023-03-01T11:05:15.771Z,2045.00
2023-03-01T11:06:15.627Z,2063.00
2023-03-01T11:08:15.776Z,2095.00
2023-03-01T11:09:15.581Z,2108.00
2023-03-01T11:10:15.666Z,2121.00
2023-03-01T11:11:15.580Z,2138.00
2023-03-01T11:12:15.578Z,2176.00
2023-03-01T11:13:15.744Z,2191.00
2023-03-01T11:14:26.005Z,2205.00
2023-03-01T11:15:15.516Z,2211.00
2023-03-01T11:16:15.612Z,2219.00
2023-03-01T11:17:15.512Z,2232.00
2023-03-01T11:18:15.731Z,2232.00
2023-03-01T11:19:16.278Z,2245.00
2023-03-01T11:20:15.543Z,2277.00
2023-03-01T11:21:15.740Z,2297.00
2023-03-01T11:22:15.779Z,2309.00
2023-03-01T11:23:15.457Z,2327.00
2023-03-01T11:24:15.745Z,2345.00
2023-03-01T11:25:15.429Z,2363.00
2023-03-01T11:26:16.240Z,2382.00
2023-03-01T11:27:15.744Z,2402.00
2023-03-01T11:28:15.573Z,2435.00
2023-03-01T11:29:15.401Z,2450.00
2023-03-01T11:30:15.489Z,2461.00
2023-03-01T11:31:15.840Z,2473.00
2023-03-01T11:32:15.848Z,2493.00
2023-03-01T11:33:15.806Z,2510.00
2023-03-01T11:34:15.356Z,2555.00
2023-03-01T11:35:15.362Z,2556.00
2023-03-01T11:36:15.360Z,2556.00
2023-03-01T11:37:15.776Z,2564.00
2023-03-01T11:38:15.311Z,2581.00
2023-03-01T11:39:15.310Z,2602.00
2023-03-01T11:40:15.409Z,2620.00
2023-03-01T11:41:15.293Z,2641.00
2023-03-01T11:42:19.104Z,2664.00
2023-03-01T11:43:15.375Z,2672.00
2023-03-01T11:44:15.267Z,2692.00
2023-03-01T11:45:15.250Z,2710.00
2023-03-01T11:46:15.443Z,2726.00
2023-03-01T11:47:15.379Z,2744.00
2023-03-01T11:48:15.220Z,2759.00
2023-03-01T11:49:15.218Z,2783.00
2023-03-01T11:50:15.273Z,2804.00
2023-03-01T11:51:15.776Z,2814.00
2023-03-01T11:52:15.244Z,2843.00
2023-03-01T11:53:15.262Z,2843.00
2023-03-01T11:54:15.188Z,2543.00
2023-03-01T11:55:15.161Z,2622.00
2023-03-01T11:56:15.160Z,2680.00
2023-03-01T11:57:15.142Z,2397.00
2023-03-01T11:58:15.126Z,2164.00
2023-03-01T11:59:15.162Z,1921.00
2023-03-01T12:00:15.246Z,1713.00
2023-03-01T12:03:15.251Z,1610.00
2023-03-01T12:05:15.109Z,1694.00
2023-03-01T12:06:15.067Z,1653.00
2023-03-01T12:07:15.088Z,1558.00
2023-03-01T12:08:15.284Z,1501.00
2023-03-01T12:09:15.090Z,1345.00
2023-03-01T12:10:15.076Z,1347.00
2023-03-01T12:11:15.055Z,1343.00
2023-03-01T12:12:15.259Z,1209.00
2023-03-01T12:13:15.263Z,1207.00
2023-03-01T12:14:15.753Z,1169.00
2023-03-01T12:15:15.012Z,1170.00
2023-03-01T12:16:16.231Z,1158.00
2023-03-01T12:18:14.959Z,1082.00
2023-03-01T12:19:14.945Z,1042.00
2023-03-01T12:21:14.926Z,1029.00
2023-03-01T12:22:15.755Z,1026.00
2023-03-01T12:23:20.606Z,1026.00
2023-03-01T12:24:14.900Z,1019.00
2023-03-01T12:25:15.760Z,1002.00
2023-03-01T12:26:14.886Z,995.00
2023-03-01T12:27:14.869Z,990.00
2023-03-01T12:28:15.263Z,982.00
2023-03-01T12:30:15.776Z,971.00
2023-03-01T12:31:14.851Z,974.00
2023-03-01T12:32:15.169Z,975.00
2023-03-01T12:33:15.292Z,978.00
2023-03-01T12:34:14.807Z,975.00
2023-03-01T12:36:14.809Z,977.00
2023-03-01T12:37:15.791Z,976.00
2023-03-01T12:38:14.773Z,974.00
2023-03-01T12:39:14.795Z,977.00
2023-03-01T12:40:14.752Z,977.00
2023-03-01T12:42:14.748Z,981.00
2023-03-01T12:43:14.723Z,983.00
2023-03-01T12:44:14.780Z,985.00
2023-03-01T12:45:14.713Z,981.00
2023-03-01T12:46:14.730Z,977.00
2023-03-01T12:47:14.690Z,972.00
2023-03-01T12:48:14.687Z,968.00
2023-03-01T12:49:14.663Z,968.00
2023-03-01T12:50:14.683Z,966.00
2023-03-01T12:51:14.790Z,963.00
2023-03-01T12:52:14.650Z,962.00
2023-03-01T12:53:14.631Z,963.00
2023-03-01T12:54:14.631Z,964.00
2023-03-01T12:55:14.656Z,964.00
2023-03-01T12:56:15.282Z,966.00
2023-03-01T12:57:14.588Z,970.00
2023-03-01T12:58:14.600Z,973.00
2023-03-01T12:59:14.579Z,968.00
2023-03-01T13:00:14.559Z,965.00
2023-03-01T13:01:14.570Z,963.00
2023-03-01T13:02:14.781Z,968.00
2023-03-01T13:03:14.531Z,961.00
2023-03-01T13:04:14.596Z,893.00
2023-03-01T13:05:14.521Z,893.00
2023-03-01T13:06:15.495Z,897.00
2023-03-01T13:07:14.505Z,891.00
2023-03-01T13:08:14.494Z,891.00
2023-03-01T13:09:14.476Z,890.00
2023-03-01T13:10:14.513Z,885.00
2023-03-01T13:11:14.569Z,885.00
2023-03-01T13:12:20.233Z,885.00
2023-03-01T13:13:14.447Z,873.00
2023-03-01T13:14:14.438Z,865.00
2023-03-01T13:15:14.422Z,860.00
2023-03-01T13:16:15.957Z,857.00
2023-03-01T13:17:14.714Z,857.00
2023-03-01T13:18:14.416Z,856.00
2023-03-01T13:19:14.395Z,859.00
2023-03-01T13:20:14.380Z,865.00
2023-03-01T13:21:14.371Z,862.00
2023-03-01T13:22:15.271Z,856.00
2023-03-01T13:23:14.432Z,851.00